Time;durP1;ratioP1;P1;durP2;ratioP2;P2;SDS_P1;SDS_P2;PMS_P1;PMS_P2;Temp;Humidity;BMP_temperature;BMP_pressure;BME280_temperature;BME280_humidity;BME280_pressure;Samples;Min_cycle;Max_cycle;Signal;HPM_P1;HPM_P2
2024/01/29 00:04:36;;;;;;;5.40;1.90;;;;;;;;;;10241969;28;20596;-69
2024/01/29 00:09:36;;;;;;;3.47;2.00;;;;;;;;;;10241680;28;20505;-69
2024/01/29 00:14:36;;;;;;;4.33;1.90;;;;;;;;;;10240287;28;20197;-69
2024/01/29 00:19:36;;;;;;;3.90;1.83;;;;;;;;;;10240184;28;20218;-69
2024/01/29 00:24:37;;;;;;;3.73;1.50;;;;;;;;;;10239999;28;20269;-69
2024/01/29 00:29:37;;;;;;;1.97;1.57;;;;;;;;;;10239780;28;20357;-69
2024/01/29 00:34:39;;;;;;;3.20;1.50;;;;;;;;;;10239473;28;20195;-69
2024/01/29 00:39:39;;;;;;;5.50;1.90;;;;;;;;;;10239369;28;20226;-69
2024/01/29 00:44:39;;;;;;;3.43;2.00;;;;;;;;;;10239450;28;20591;-69
2024/01/29 00:49:39;;;;;;;1.63;1.47;;;;;;;;;;10239209;28;20306;-69
2024/01/29 00:54:40;;;;;;;4.37;2.70;;;;;;;;;;10239138;28;20191;-69
2024/01/29 00:59:40;;;;;;;3.50;2.00;;;;;;;;;;10237779;28;20220;-69
2024/01/29 01:04:40;;;;;;;3.13;1.80;;;;;;;;;;10238664;28;20218;-69
2024/01/29 01:09:40;;;;;;;3.67;1.47;;;;;;;;;;10206365;28;996688;-69
2024/01/29 01:14:40;;;;;;;3.50;1.93;;;;;;;;;;10247642;28;21042;-69
2024/01/29 01:19:40;;;;;;;3.00;1.60;;;;;;;;;;10247182;28;20573;-69
2024/01/29 01:24:41;;;;;;;3.50;1.33;;;;;;;;;;10246938;28;20200;-69
2024/01/29 01:29:41;;;;;;;1.27;1.17;;;;;;;;;;10246811;28;20223;-69
2024/01/29 01:34:42;;;;;;;1.87;1.37;;;;;;;;;;10246666;28;20199;-69
2024/01/29 01:39:42;;;;;;;2.57;1.53;;;;;;;;;;10246572;28;20685;-69
2024/01/29 01:44:42;;;;;;;2.63;1.43;;;;;;;;;;10246146;28;20196;-69
2024/01/29 01:49:42;;;;;;;2.17;1.10;;;;;;;;;;10245855;28;20219;-68
2024/01/29 01:54:43;;;;;;;2.50;1.30;;;;;;;;;;10246104;28;20196;-68
2024/01/29 01:59:43;;;;;;;2.83;1.40;;;;;;;;;;10245521;28;20779;-68
2024/01/29 02:04:43;;;;;;;4.03;1.87;;;;;;;;;;10244827;28;20195;-68
2024/01/29 02:09:43;;;;;;;1.93;1.30;;;;;;;;;;10244842;28;20334;-68
2024/01/29 02:14:44;;;;;;;1.30;1.00;;;;;;;;;;10245493;28;20451;-69
2024/01/29 02:19:44;;;;;;;2.20;1.20;;;;;;;;;;10244819;28;20207;-68
2024/01/29 02:24:44;;;;;;;1.33;1.10;;;;;;;;;;10244964;28;20595;-69
2024/01/29 02:29:44;;;;;;;6.33;2.57;;;;;;;;;;10244766;28;20227;-69
2024/01/29 02:34:45;;;;;;;3.10;1.63;;;;;;;;;;10244676;28;20202;-69
2024/01/29 02:39:45;;;;;;;3.30;2.73;;;;;;;;;;10244949;28;20219;-69
2024/01/29 02:44:45;;;;;;;2.57;1.90;;;;;;;;;;10244158;28;20214;-69
2024/01/29 02:49:45;;;;;;;11.53;5.80;;;;;;;;;;10244280;28;20239;-69
2024/01/29 02:54:46;;;;;;;10.80;4.30;;;;;;;;;;10244399;28;20243;-69
2024/01/29 02:59:46;;;;;;;1.40;1.30;;;;;;;;;;10242989;28;20595;-69
2024/01/29 03:04:46;;;;;;;9.13;4.77;;;;;;;;;;10244379;28;20198;-69
2024/01/29 03:09:46;;;;;;;12.90;6.50;;;;;;;;;;10243682;28;20257;-68
2024/01/29 03:14:47;;;;;;;16.57;6.97;;;;;;;;;;10243583;28;20222;-69
2024/01/29 03:19:47;;;;;;;14.13;6.13;;;;;;;;;;10243439;28;20598;-69
2024/01/29 03:24:47;;;;;;;4.13;2.07;;;;;;;;;;10243325;28;20195;-69
2024/01/29 03:29:47;;;;;;;2.87;1.47;;;;;;;;;;10242934;28;20713;-69
2024/01/29 03:34:47;;;;;;;1.70;1.20;;;;;;;;;;10242377;28;20208;-69
2024/01/29 03:39:47;;;;;;;2.07;1.10;;;;;;;;;;10242455;28;20207;-69
2024/01/29 03:44:48;;;;;;;2.87;1.30;;;;;;;;;;10242788;28;20289;-69
2024/01/29 03:49:48;;;;;;;1.97;1.33;;;;;;;;;;10242130;28;20634;-69
2024/01/29 03:54:48;;;;;;;3.07;1.20;;;;;;;;;;10242321;28;20199;-69
2024/01/29 03:59:48;;;;;;;3.13;1.33;;;;;;;;;;10242213;28;20252;-68
2024/01/29 04:04:48;;;;;;;1.93;1.07;;;;;;;;;;10242048;28;20203;-69
2024/01/29 04:09:48;;;;;;;3.07;1.63;;;;;;;;;;10241900;28;20242;-69
2024/01/29 04:14:49;;;;;;;3.53;1.57;;;;;;;;;;10241743;28;20210;-69
2024/01/29 04:19:49;;;;;;;4.30;1.23;;;;;;;;;;10241780;28;20302;-69
2024/01/29 04:24:49;;;;;;;2.33;1.30;;;;;;;;;;10241067;28;20576;-69
2024/01/29 04:29:49;;;;;;;1.20;1.03;;;;;;;;;;10241045;28;20238;-69
2024/01/29 04:34:49;;;;;;;3.73;1.27;;;;;;;;;;10241213;28;20278;-69
2024/01/29 04:39:49;;;;;;;2.77;1.23;;;;;;;;;;10241173;28;20218;-68
2024/01/29 04:44:50;;;;;;;1.13;1.10;;;;;;;;;;10243337;28;20191;-69
2024/01/29 04:49:50;;;;;;;1.40;1.23;;;;;;;;;;10247534;28;20226;-69
2024/01/29 04:54:50;;;;;;;2.10;1.40;;;;;;;;;;10248009;28;20727;-69
2024/01/29 04:59:50;;;;;;;2.07;1.20;;;;;;;;;;10247598;28;20238;-69
2024/01/29 05:04:50;;;;;;;2.60;1.53;;;;;;;;;;10247473;28;20199;-69
2024/01/29 05:09:51;;;;;;;4.53;1.33;;;;;;;;;;10246851;28;20238;-68
2024/01/29 05:14:51;;;;;;;2.43;1.30;;;;;;;;;;10247323;28;20184;-68
2024/01/29 05:19:51;;;;;;;1.30;1.20;;;;;;;;;;10246993;28;21041;-68
2024/01/29 05:24:51;;;;;;;1.87;1.20;;;;;;;;;;10247124;28;20191;-69
2024/01/29 05:29:51;;;;;;;2.50;1.40;;;;;;;;;;10246528;28;20234;-68
2024/01/29 05:34:52;;;;;;;1.77;1.20;;;;;;;;;;10246693;28;20232;-69
2024/01/29 05:39:52;;;;;;;1.77;1.10;;;;;;;;;;10245546;28;20583;-69
2024/01/29 05:44:52;;;;;;;2.53;1.10;;;;;;;;;;10245682;28;20726;-69
2024/01/29 05:49:52;;;;;;;1.20;0.90;;;;;;;;;;10246186;28;20231;-67
2024/01/29 05:54:52;;;;;;;3.60;1.57;;;;;;;;;;10245559;28;20849;-69
2024/01/29 05:59:53;;;;;;;3.20;1.53;;;;;;;;;;10245990;28;20219;-68
2024/01/29 06:04:53;;;;;;;2.07;1.57;;;;;;;;;;10245788;28;20197;-68
2024/01/29 06:09:53;;;;;;;1.87;1.53;;;;;;;;;;10245224;28;20448;-68
2024/01/29 06:14:53;;;;;;;4.37;1.47;;;;;;;;;;10448884;22;20768;-67
2024/01/29 06:19:53;;;;;;;2.53;1.70;;;;;;;;;;10454323;28;20203;-66
2024/01/29 06:24:53;;;;;;;3.20;1.50;;;;;;;;;;10454377;28;20228;-66
2024/01/29 06:29:54;;;;;;;2.13;1.10;;;;;;;;;;10453769;28;20220;-66
2024/01/29 06:34:57;;;;;;;2.80;1.20;;;;;;;;;;10458092;28;20303;-66
2024/01/29 06:39:57;;;;;;;2.17;1.23;;;;;;;;;;10464588;28;20279;-66
2024/01/29 06:44:58;;;;;;;1.97;1.30;;;;;;;;;;10464074;28;20358;-66
2024/01/29 06:49:58;;;;;;;3.10;1.40;;;;;;;;;;10447686;28;21028;-66
2024/01/29 06:55:00;;;;;;;2.63;1.20;;;;;;;;;;10463593;28;20206;-66
2024/01/29 07:00:00;;;;;;;2.60;1.30;;;;;;;;;;10463342;28;20202;-66
2024/01/29 07:05:00;;;;;;;0.90;0.90;;;;;;;;;;10462902;28;20616;-66
2024/01/29 07:10:00;;;;;;;4.20;1.30;;;;;;;;;;10461855;28;20226;-67
2024/01/29 07:15:01;;;;;;;3.40;1.40;;;;;;;;;;10462035;28;20227;-67
2024/01/29 07:20:02;;;;;;;1.47;1.00;;;;;;;;;;10462275;28;20634;-66
2024/01/29 07:25:03;;;;;;;4.37;1.30;;;;;;;;;;10453989;28;20221;-67
2024/01/29 07:30:04;;;;;;;3.10;1.30;;;;;;;;;;10450710;28;20219;-67
2024/01/29 07:35:05;;;;;;;3.60;1.20;;;;;;;;;;10450975;28;20218;-66
2024/01/29 07:40:07;;;;;;;2.10;1.40;;;;;;;;;;10444049;28;20234;-66
2024/01/29 07:45:07;;;;;;;1.93;1.30;;;;;;;;;;10451604;28;20728;-67
2024/01/29 07:50:08;;;;;;;2.03;1.40;;;;;;;;;;10454599;28;20299;-68
2024/01/29 07:55:08;;;;;;;2.20;1.30;;;;;;;;;;10450107;28;20213;-67
2024/01/29 08:00:09;;;;;;;2.70;1.57;;;;;;;;;;10449902;28;20576;-67
2024/01/29 08:05:09;;;;;;;0.90;0.90;;;;;;;;;;10449521;28;21003;-68
2024/01/29 08:10:09;;;;;;;3.60;1.50;;;;;;;;;;10447955;28;20211;-67
2024/01/29 08:15:09;;;;;;;2.20;1.10;;;;;;;;;;10448842;28;20231;-67
2024/01/29 08:20:10;;;;;;;2.77;1.07;;;;;;;;;;10449422;28;20180;-67
2024/01/29 08:25:10;;;;;;;4.30;1.73;;;;;;;;;;10447595;28;20218;-67
2024/01/29 08:30:10;;;;;;;1.77;1.37;;;;;;;;;;10456367;28;20231;-67
2024/01/29 08:35:11;;;;;;;1.93;1.23;;;;;;;;;;10451234;28;20219;-67
2024/01/29 08:40:11;;;;;;;1.97;1.60;;;;;;;;;;10460470;28;20506;-67
2024/01/29 08:45:14;;;;;;;2.70;1.47;;;;;;;;;;10459357;28;20215;-67
2024/01/29 08:50:14;;;;;;;4.47;1.50;;;;;;;;;;10456222;28;20474;-68
2024/01/29 08:55:14;;;;;;;2.50;1.67;;;;;;;;;;10445601;28;20207;-68
2024/01/29 09:00:15;;;;;;;2.80;1.13;;;;;;;;;;10445407;28;20543;-68
2024/01/29 09:05:15;;;;;;;1.17;1.07;;;;;;;;;;10442923;28;20465;-68
2024/01/29 09:10:16;;;;;;;3.33;1.00;;;;;;;;;;10445389;28;20211;-68
2024/01/29 09:15:16;;;;;;;2.60;1.30;;;;;;;;;;10445464;28;20319;-68
2024/01/29 09:20:16;;;;;;;2.60;1.20;;;;;;;;;;10444256;28;20227;-68
2024/01/29 09:25:16;;;;;;;2.03;1.40;;;;;;;;;;10445132;28;20242;-68
2024/01/29 09:30:17;;;;;;;2.07;1.20;;;;;;;;;;10467131;28;20222;-68
2024/01/29 09:35:17;;;;;;;4.53;2.00;;;;;;;;;;10473687;28;20242;-67
2024/01/29 09:40:17;;;;;;;2.33;1.57;;;;;;;;;;10470420;28;20207;-67
2024/01/29 09:45:22;;;;;;;2.10;1.33;;;;;;;;;;10451992;28;20208;-67
2024/01/29 09:50:24;;;;;;;4.30;1.80;;;;;;;;;;10448299;28;20490;-67
2024/01/29 09:55:25;;;;;;;4.20;2.03;;;;;;;;;;10452275;28;20188;-68
2024/01/29 10:00:25;;;;;;;1.87;1.60;;;;;;;;;;10451611;28;20188;-68
2024/01/29 10:05:27;;;;;;;1.57;1.30;;;;;;;;;;10450860;28;20192;-67
2024/01/29 10:10:27;;;;;;;6.17;1.83;;;;;;;;;;10450784;28;20853;-68
2024/01/29 10:15:28;;;;;;;3.50;1.50;;;;;;;;;;10451131;28;20278;-67
2024/01/29 10:20:28;;;;;;;4.40;1.87;;;;;;;;;;10455553;28;20261;-67
2024/01/29 10:25:30;;;;;;;5.43;1.63;;;;;;;;;;10457353;28;20218;-67
2024/01/29 10:30:30;;;;;;;5.40;2.30;;;;;;;;;;10451757;28;20188;-69
2024/01/29 10:35:30;;;;;;;3.47;1.87;;;;;;;;;;10450218;28;20860;-69
2024/01/29 10:40:31;;;;;;;2.90;1.93;;;;;;;;;;10449670;28;20286;-67
2024/01/29 10:45:34;;;;;;;5.33;2.37;;;;;;;;;;10448799;28;20195;-66
2024/01/29 10:50:34;;;;;;;5.73;2.13;;;;;;;;;;10447883;28;20195;-66
2024/01/29 10:55:36;;;;;;;3.70;2.30;;;;;;;;;;10448902;28;20555;-66
2024/01/29 11:00:36;;;;;;;3.37;2.50;;;;;;;;;;10448766;28;20188;-67
2024/01/29 11:05:37;;;;;;;6.53;2.65;;;;;;;;;;10448606;28;20218;-68
2024/01/29 11:10:38;;;;;;;4.82;3.05;;;;;;;;;;10448596;28;20234;-67
2024/01/29 11:15:41;;;;;;;3.77;2.00;;;;;;;;;;10448162;28;20700;-67
2024/01/29 11:20:41;;;;;;;4.77;2.80;;;;;;;;;;10449196;28;20241;-68
2024/01/29 11:25:41;;;;;;;5.13;2.97;;;;;;;;;;10454631;28;20267;-67
2024/01/29 11:30:47;;;;;;;4.93;2.47;;;;;;;;;;10447888;28;20203;-68
2024/01/29 11:35:55;;;;;;;5.47;3.10;;;;;;;;;;10445674;28;20196;-67
2024/01/29 11:41:00;;;;;;;6.30;3.45;;;;;;;;;;10447113;28;20210;-69
2024/01/29 11:46:00;;;;;;;6.03;3.80;;;;;;;;;;10445681;28;20607;-68
2024/01/29 11:51:00;;;;;;;5.70;2.70;;;;;;;;;;10453914;28;20212;-68
2024/01/29 11:56:00;;;;;;;2.42;1.58;;;;;;;;;;10446179;28;20191;-69
2024/01/29 12:01:00;;;;;;;5.75;2.60;;;;;;;;;;10445444;28;20214;-68
2024/01/29 12:06:01;;;;;;;4.90;2.53;;;;;;;;;;10446615;28;20661;-69
2024/01/29 12:11:02;;;;;;;4.13;2.40;;;;;;;;;;10446372;28;20231;-68
2024/01/29 12:16:03;;;;;;;4.93;2.47;;;;;;;;;;10444802;28;20184;-68
2024/01/29 12:21:04;;;;;;;7.28;2.58;;;;;;;;;;10446596;28;20224;-67
2024/01/29 12:26:04;;;;;;;4.45;2.25;;;;;;;;;;10446149;28;20266;-68
2024/01/29 12:31:06;;;;;;;6.65;2.72;;;;;;;;;;10444926;28;20291;-68
2024/01/29 12:36:11;;;;;;;3.80;2.45;;;;;;;;;;10446575;28;20188;-67
2024/01/29 12:41:11;;;;;;;7.25;2.60;;;;;;;;;;10445576;28;20619;-69
2024/01/29 12:46:12;;;;;;;5.95;3.10;;;;;;;;;;10444755;28;20220;-68
2024/01/29 12:51:13;;;;;;;4.10;2.42;;;;;;;;;;10445830;28;20204;-68
2024/01/29 12:56:14;;;;;;;6.73;3.03;;;;;;;;;;10443716;28;20737;-68
2024/01/29 13:01:14;;;;;;;8.17;3.27;;;;;;;;;;10444594;28;20327;-68
2024/01/29 13:06:14;;;;;;;5.97;3.30;;;;;;;;;;10448903;28;20237;-68
2024/01/29 13:11:14;;;;;;;6.97;3.47;;;;;;;;;;10453205;28;20686;-68
2024/01/29 13:16:15;;;;;;;5.57;2.90;;;;;;;;;;10453425;28;20195;-67
2024/01/29 13:21:17;;;;;;;6.72;3.30;;;;;;;;;;10453556;28;20214;-68
2024/01/29 13:26:17;;;;;;;6.97;3.33;;;;;;;;;;10450444;28;20244;-68
2024/01/29 13:31:17;;;;;;;6.20;3.17;;;;;;;;;;10452807;28;20227;-68
2024/01/29 13:36:18;;;;;;;10.60;8.80;;;;;;;;;;10452117;28;20254;-68
2024/01/29 13:41:18;;;;;;;7.38;5.18;;;;;;;;;;10451655;28;20227;-67
2024/01/29 13:46:19;;;;;;;5.75;3.60;;;;;;;;;;10452638;28;20207;-67
2024/01/29 13:51:22;;;;;;;5.78;3.45;;;;;;;;;;10451082;28;20204;-67
2024/01/29 13:56:22;;;;;;;8.80;3.53;;;;;;;;;;10452003;28;20450;-66
2024/01/29 14:01:22;;;;;;;5.77;2.97;;;;;;;;;;10452339;28;20911;-66
2024/01/29 14:06:22;;;;;;;5.63;2.67;;;;;;;;;;10451567;28;20255;-66
2024/01/29 14:11:23;;;;;;;8.47;3.40;;;;;;;;;;10451472;28;20789;-68
2024/01/29 14:16:23;;;;;;;7.33;3.60;;;;;;;;;;10451887;28;20543;-68
2024/01/29 14:21:23;;;;;;;6.60;3.53;;;;;;;;;;10468070;28;20220;-67
2024/01/29 14:26:23;;;;;;;4.03;2.27;;;;;;;;;;10467623;28;20227;-67
2024/01/29 14:31:25;;;;;;;6.97;3.80;;;;;;;;;;10463399;28;20215;-67
2024/01/29 14:36:25;;;;;;;7.00;2.80;;;;;;;;;;10452549;28;20202;-67
2024/01/29 14:41:25;;;;;;;4.00;2.00;;;;;;;;;;10452346;28;20211;-67
2024/01/29 14:46:25;;;;;;;5.70;3.00;;;;;;;;;;10461534;28;20295;-68
2024/01/29 14:51:27;;;;;;;6.47;2.73;;;;;;;;;;10454563;28;20211;-67
2024/01/29 14:56:27;;;;;;;5.80;3.10;;;;;;;;;;10454378;28;20254;-67
2024/01/29 15:01:29;;;;;;;5.60;2.93;;;;;;;;;;10454284;28;20394;-67
2024/01/29 15:06:29;;;;;;;4.40;2.57;;;;;;;;;;10450878;28;20219;-67
2024/01/29 15:11:29;;;;;;;27.13;11.57;;;;;;;;;;10447827;28;20227;-67
2024/01/29 15:16:30;;;;;;;14.80;7.67;;;;;;;;;;10448994;28;20279;-67
2024/01/29 15:21:30;;;;;;;13.10;6.43;;;;;;;;;;10448370;28;20242;-68
2024/01/29 15:26:31;;;;;;;23.37;13.90;;;;;;;;;;10448467;28;20257;-67
2024/01/29 15:31:32;;;;;;;7.23;4.07;;;;;;;;;;10447740;28;20211;-67
2024/01/29 15:36:35;;;;;;;23.07;14.07;;;;;;;;;;10447844;28;20215;-67
2024/01/29 15:41:36;;;;;;;5.77;2.90;;;;;;;;;;10445492;28;20709;-67
2024/01/29 15:46:45;;;;;;;14.83;7.23;;;;;;;;;;10451598;28;20361;-67
2024/01/29 15:51:45;;;;;;;5.67;3.10;;;;;;;;;;10465592;28;20199;-67
2024/01/29 15:56:45;;;;;;;6.97;3.50;;;;;;;;;;10465155;28;20188;-68
2024/01/29 16:01:55;;;;;;;7.13;4.97;;;;;;;;;;10459495;28;20670;-68
2024/01/29 16:06:55;;;;;;;9.77;6.37;;;;;;;;;;10445148;28;20224;-67
2024/01/29 16:11:55;;;;;;;4.93;2.80;;;;;;;;;;10446972;28;20378;-67
2024/01/29 16:16:55;;;;;;;5.15;3.00;;;;;;;;;;10445407;28;20210;-67
2024/01/29 16:21:57;;;;;;;5.10;2.60;;;;;;;;;;10446116;28;20219;-67
2024/01/29 16:26:57;;;;;;;3.90;2.70;;;;;;;;;;10446325;28;20284;-68
2024/01/29 16:31:57;;;;;;;3.77;2.43;;;;;;;;;;10447391;28;20260;-68
2024/01/29 16:36:57;;;;;;;5.53;2.87;;;;;;;;;;10451548;28;20282;-68
2024/01/29 16:41:58;;;;;;;2.07;1.83;;;;;;;;;;10469073;28;20212;-67
2024/01/29 16:46:58;;;;;;;8.03;2.47;;;;;;;;;;10472375;28;20477;-68
2024/01/29 16:51:58;;;;;;;4.80;2.50;;;;;;;;;;10472971;28;20200;-67
2024/01/29 16:57:04;;;;;;;4.77;2.57;;;;;;;;;;10471095;28;21054;-67
2024/01/29 17:02:04;;;;;;;5.63;2.83;;;;;;;;;;10460969;28;20220;-67
2024/01/29 17:07:04;;;;;;;4.93;2.77;;;;;;;;;;10463237;28;20219;-67
2024/01/29 17:12:04;;;;;;;4.40;2.37;;;;;;;;;;10456762;28;20239;-67
2024/01/29 17:17:04;;;;;;;5.03;2.47;;;;;;;;;;10461047;28;20215;-67
2024/01/29 17:22:05;;;;;;;5.93;2.90;;;;;;;;;;10468249;28;20211;-67
2024/01/29 17:27:05;;;;;;;7.07;3.27;;;;;;;;;;10470277;28;20211;-67
2024/01/29 17:32:05;;;;;;;8.40;3.57;;;;;;;;;;10464588;28;20275;-67
2024/01/29 17:37:05;;;;;;;13.40;3.00;;;;;;;;;;10456035;28;20438;-67
2024/01/29 17:42:07;;;;;;;7.23;3.60;;;;;;;;;;10455701;28;20216;-67
2024/01/29 17:47:08;;;;;;;10.73;4.67;;;;;;;;;;10453207;28;20789;-68
2024/01/29 17:52:10;;;;;;;6.73;3.93;;;;;;;;;;10450769;28;20286;-67
2024/01/29 17:57:10;;;;;;;9.13;5.03;;;;;;;;;;10451854;28;20200;-67
2024/01/29 18:02:11;;;;;;;11.30;4.80;;;;;;;;;;10451902;28;20215;-67
2024/01/29 18:07:11;;;;;;;9.30;4.87;;;;;;;;;;10451484;28;20302;-67
2024/01/29 18:12:11;;;;;;;12.13;4.57;;;;;;;;;;10450345;28;20596;-68
2024/01/29 18:17:12;;;;;;;13.20;5.10;;;;;;;;;;10450316;28;20207;-67
2024/01/29 18:22:12;;;;;;;8.80;4.07;;;;;;;;;;10450377;28;20580;-68
2024/01/29 18:27:13;;;;;;;9.13;4.30;;;;;;;;;;10447906;28;20218;-67
2024/01/29 18:32:13;;;;;;;11.67;6.33;;;;;;;;;;10449906;28;20516;-67
2024/01/29 18:37:13;;;;;;;11.00;5.90;;;;;;;;;;10449114;28;20245;-67
2024/01/29 18:42:15;;;;;;;13.63;7.03;;;;;;;;;;10450274;28;20239;-67
2024/01/29 18:47:15;;;;;;;18.33;7.50;;;;;;;;;;10449060;28;20214;-67
2024/01/29 18:52:15;;;;;;;12.23;6.47;;;;;;;;;;10448794;28;20217;-67
2024/01/29 18:57:15;;;;;;;15.60;7.60;;;;;;;;;;10448570;28;20192;-67
2024/01/29 19:02:16;;;;;;;15.37;7.17;;;;;;;;;;10447113;28;20465;-67
2024/01/29 19:07:18;;;;;;;15.80;8.13;;;;;;;;;;10448272;28;20211;-67
2024/01/29 19:12:18;;;;;;;14.07;7.40;;;;;;;;;;10447488;28;20297;-67
2024/01/29 19:17:18;;;;;;;12.70;7.27;;;;;;;;;;10448532;28;20296;-67
2024/01/29 19:22:19;;;;;;;13.60;6.07;;;;;;;;;;10455259;28;20220;-66
2024/01/29 19:27:19;;;;;;;14.63;8.00;;;;;;;;;;10459364;28;20218;-67
2024/01/29 19:32:20;;;;;;;21.60;9.17;;;;;;;;;;10460297;28;20231;-67
2024/01/29 19:37:24;;;;;;;21.07;8.43;;;;;;;;;;10459715;28;20219;-66
2024/01/29 19:42:25;;;;;;;17.20;8.63;;;;;;;;;;10456457;28;20231;-67
2024/01/29 19:47:25;;;;;;;21.90;8.80;;;;;;;;;;10456424;28;20227;-67
2024/01/29 19:52:28;;;;;;;17.87;9.03;;;;;;;;;;10450300;28;20207;-67
2024/01/29 19:57:28;;;;;;;11.87;5.60;;;;;;;;;;10450394;28;20192;-67
2024/01/29 20:02:28;;;;;;;17.80;8.40;;;;;;;;;;10449744;28;20212;-67
2024/01/29 20:07:29;;;;;;;12.47;6.93;;;;;;;;;;10450127;28;20246;-67
2024/01/29 20:12:30;;;;;;;11.10;6.20;;;;;;;;;;10450223;28;20300;-68
2024/01/29 20:17:31;;;;;;;19.27;8.20;;;;;;;;;;10454567;28;20668;-67
2024/01/29 20:22:31;;;;;;;16.57;5.83;;;;;;;;;;10460556;28;20302;-68
2024/01/29 20:27:31;;;;;;;16.63;8.37;;;;;;;;;;10459064;28;20595;-67
2024/01/29 20:32:31;;;;;;;12.53;7.37;;;;;;;;;;10451555;28;20216;-68
2024/01/29 20:37:31;;;;;;;15.90;7.80;;;;;;;;;;10458859;28;20199;-67
2024/01/29 20:42:32;;;;;;;15.43;5.87;;;;;;;;;;10458829;28;20243;-68
2024/01/29 20:47:32;;;;;;;13.07;5.13;;;;;;;;;;10458319;28;20211;-68
2024/01/29 20:52:32;;;;;;;15.70;8.43;;;;;;;;;;10451188;28;20715;-67
2024/01/29 20:57:33;;;;;;;17.77;9.17;;;;;;;;;;10448901;28;20210;-67
2024/01/29 21:02:33;;;;;;;17.00;8.43;;;;;;;;;;10448143;28;20212;-67
2024/01/29 21:07:33;;;;;;;17.60;7.93;;;;;;;;;;10454267;28;20326;-67
2024/01/29 21:12:33;;;;;;;12.60;6.57;;;;;;;;;;10458599;28;20239;-67
2024/01/29 21:17:33;;;;;;;14.90;7.60;;;;;;;;;;10461017;28;20203;-67
2024/01/29 21:22:34;;;;;;;16.10;8.30;;;;;;;;;;10460783;28;20842;-67
2024/01/29 21:27:34;;;;;;;14.17;8.53;;;;;;;;;;10462225;28;20779;-67
2024/01/29 21:32:34;;;;;;;12.87;6.37;;;;;;;;;;10457670;28;20566;-67
2024/01/29 21:37:34;;;;;;;17.20;8.90;;;;;;;;;;10456026;28;20206;-67
2024/01/29 21:42:35;;;;;;;18.67;8.93;;;;;;;;;;10455783;28;20470;-67
2024/01/29 21:47:35;;;;;;;14.77;7.47;;;;;;;;;;10455469;28;20572;-68
2024/01/29 21:52:35;;;;;;;14.43;7.00;;;;;;;;;;10455664;28;20737;-67
2024/01/29 21:57:36;;;;;;;15.73;6.77;;;;;;;;;;10453766;28;20184;-68
2024/01/29 22:02:36;;;;;;;15.73;7.00;;;;;;;;;;10454996;28;20334;-69
2024/01/29 22:07:36;;;;;;;16.43;8.77;;;;;;;;;;10454333;28;20276;-69
2024/01/29 22:12:36;;;;;;;19.07;9.37;;;;;;;;;;10454735;28;20610;-68
2024/01/29 22:17:37;;;;;;;18.98;6.95;;;;;;;;;;10454305;28;20186;-66
2024/01/29 22:22:37;;;;;;;15.03;7.73;;;;;;;;;;10454261;28;20722;-69
2024/01/29 22:27:37;;;;;;;18.80;8.50;;;;;;;;;;10454392;28;20222;-66
2024/01/29 22:32:37;;;;;;;12.07;6.97;;;;;;;;;;10453969;28;20200;-67
2024/01/29 22:37:37;;;;;;;17.70;9.90;;;;;;;;;;10453008;28;20573;-66
2024/01/29 22:42:38;;;;;;;18.00;7.53;;;;;;;;;;10453581;28;20690;-67
2024/01/29 22:47:38;;;;;;;18.50;9.87;;;;;;;;;;10453258;28;20208;-66
2024/01/29 22:52:38;;;;;;;16.10;7.80;;;;;;;;;;10453335;28;20199;-68
2024/01/29 22:57:38;;;;;;;17.10;7.67;;;;;;;;;;10452457;28;20556;-66
2024/01/29 23:02:38;;;;;;;16.57;8.33;;;;;;;;;;10452955;28;20557;-66
2024/01/29 23:07:40;;;;;;;15.13;7.13;;;;;;;;;;10452300;28;20565;-68
2024/01/29 23:12:40;;;;;;;24.23;10.67;;;;;;;;;;10452433;28;20327;-66
2024/01/29 23:17:41;;;;;;;14.47;7.60;;;;;;;;;;10451662;28;20199;-68
2024/01/29 23:22:41;;;;;;;18.30;9.03;;;;;;;;;;10452964;28;20235;-68
2024/01/29 23:27:41;;;;;;;20.40;8.90;;;;;;;;;;10452628;28;20215;-68
2024/01/29 23:32:41;;;;;;;18.17;7.70;;;;;;;;;;10451969;28;20561;-69
2024/01/29 23:37:41;;;;;;;16.57;7.23;;;;;;;;;;10450101;28;20188;-69
2024/01/29 23:42:42;;;;;;;19.83;9.00;;;;;;;;;;10451401;28;20257;-69
2024/01/29 23:47:42;;;;;;;16.73;8.20;;;;;;;;;;10450273;28;20212;-67
2024/01/29 23:52:42;;;;;;;16.40;8.13;;;;;;;;;;10450714;28;20207;-68
2024/01/29 23:57:42;;;;;;;12.63;7.70;;;;;;;;;;10450649;28;20670;-66
